KBED

Laurence G Hanscom Field Airport

Bedford, Massachusetts, USA
METAR KBED 180156Z 00000KT 10SM CLR M06/M12 A3027 RMK AO2 SLP267 T10611122
Observed Flight Rules
Dec-18 @ 01:56 UTC (an hour ago) Visual Flight Rules
Wind Visibility Clouds
Calm 10 miles
  • Clear skies
Temperatures Readings
Current -6°C / 21°F
Dewpoint -12°C / 10°F
Humidity 63%
Altimeter 30.27" Hg
Pressure 1026.7 hPa
Elevation 50
METAR KBED 180156Z 00000KT 10SM CLR M06/M12 A3027 RMK AO2 SLP267 T10611122
Observed Flight Rules
Dec-18 @ 01:56 UTC
(an hour ago)
VFR
Wind Visibility
Calm 10 miles
Clouds
  • Clear skies
Temperature Dewpoint
-6°C / 21°F -12°C / 10°F
Humidity Altimeter Pressure
63% 30.27" Hg 1026.7 hPa